Address 0x022c5e18e18211d6f9f43d21621f78b4ada296a5 1

Overview

Balance:
38.958306746574613038 GLMR

GLMR Value:
$15.93 (@ $0.41/GLMR)

Token:
Txn Hash Method
Block
From
To
Value [Txn Fee]
0xd06c247be5f9e5b80543068fb81ade2958a3b0c399b1f452f901c5decbd90059Transfer12919022022-06-22 22:59:42164 days 2 hrs ago0x022c5e18e18211d6f9f43d21621f78b4ada296a5OUT0x79f67a6d4fb05e2209ea85b103bd17fa117d5e63100 GLMR0.0021315
0xebea7eca6e21b896b16ffa5cc1da45749a20ff4c4166871cead6d14e7b3c92aaTransfer12918972022-06-22 22:58:42164 days 2 hrs ago0x022c5e18e18211d6f9f43d21621f78b4ada296a5OUT 0x625197a35863f57e851540085099baea46216ea00 GLMR0.010829087975
0x254ac7dce0c1bbc1d17bcffb292b5720a398a2581fde8e7d635a9d89fa30e34fTransfer12918882022-06-22 22:56:48164 days 2 hrs ago0x022c5e18e18211d6f9f43d21621f78b4ada296a5OUT0x79f67a6d4fb05e2209ea85b103bd17fa117d5e631,000 GLMR0.0021315
0x652b771fc38959a96f02aff1d33ddbc8710a10b9b38f9de319c0bc8288627857Remove Liquidity...12916772022-06-22 22:10:48164 days 3 hrs ago0x022c5e18e18211d6f9f43d21621f78b4ada296a5OUT SushiSwap: Router0 GLMR0.034215084
0x8aeb0ca436dea01eb1983e1b9e1916ae008b12d519b6efddea8871839ce64e3eTransfer12875212022-06-22 7:15:42164 days 18 hrs ago0x022c5e18e18211d6f9f43d21621f78b4ada296a5OUT 0x625197a35863f57e851540085099baea46216ea00 GLMR0.009111452
0x89948178bac767e64f2f3747b79ac0f0d743c32e8aa168df48c3af4c8ef3a9f1Add Liquidity ET...12874422022-06-22 6:59:06164 days 18 hrs ago0x022c5e18e18211d6f9f43d21621f78b4ada296a5OUT SushiSwap: Router1,000 GLMR0.020206823
0x87b1e19a90cc66b74f7cf8150a5083bb19d1edf1c70086a1c32b3c039d4cd4bdTransfer12874272022-06-22 6:55:48164 days 18 hrs ago0x332aa99f6cc054fa5703a6b4a4c9063f2a972ee2 IN 0x022c5e18e18211d6f9f43d21621f78b4ada296a51,000 GLMR0.0021315
0x67db98f598564b316e6c705207a313629bbd2c888f8ef5f2cbe40218789edfa4Set Max Tx Perce...12796372022-06-21 3:03:48165 days 22 hrs ago0x022c5e18e18211d6f9f43d21621f78b4ada296a5OUT 0x625197a35863f57e851540085099baea46216ea00 GLMR0.002863956
0xe880bde6dba753d2a14230ea4f6e6c47a10b16eddbf741317e968a6e72d09362Set Max Tx Perce...12796202022-06-21 3:00:12165 days 22 hrs ago0x022c5e18e18211d6f9f43d21621f78b4ada296a5OUT 0x625197a35863f57e851540085099baea46216ea00 GLMR0.002865168
0xd572e081a5bea32e26b80ed65e221705c8c0dedf417ca17c8debabb1f8e16f1dTransfer12795682022-06-21 2:49:06165 days 22 hrs ago0x022c5e18e18211d6f9f43d21621f78b4ada296a5OUT 0x625197a35863f57e851540085099baea46216ea00 GLMR0.0107107875
0x14da71b114ceaae9af44780fea9a32becb7c3009b219d9b6a2cc5e43f33b78faTransfer12795402022-06-21 2:42:48165 days 23 hrs ago0x022c5e18e18211d6f9f43d21621f78b4ada296a5OUT 0x625197a35863f57e851540085099baea46216ea00 GLMR0.009112467
0xb584549fe72e7304c8efc9482390db6115f8ef71b7e206a7dfe5b65913c946d8Transfer12795262022-06-21 2:39:36165 days 23 hrs ago0x022c5e18e18211d6f9f43d21621f78b4ada296a5OUT 0x625197a35863f57e851540085099baea46216ea00 GLMR0.010723475
0x996efd328ca40f747f6c1961076a5290ce5354202ce2e7cefefc719acea23f60Set Max Tx Perce...12789212022-06-21 0:29:18166 days 1 hr ago0x022c5e18e18211d6f9f43d21621f78b4ada296a5OUT 0x625197a35863f57e851540085099baea46216ea00 GLMR0.002865168
0xec4f98be7bb34a90b1f73386170763d917164757f059bca557b11e1fb35a129bApprove12740302022-06-20 6:45:24166 days 18 hrs ago0x022c5e18e18211d6f9f43d21621f78b4ada296a5OUT 0x625197a35863f57e851540085099baea46216ea00 GLMR0.004725028
0xc9449451ef0df5b500b942b4210f2933109b65f6cf7ebb0782e3043fa8bf0f10Cancel Auction12716272022-06-19 22:07:48167 days 3 hrs ago0x022c5e18e18211d6f9f43d21621f78b4ada296a5OUT 0x171882bcbf36ec3a8b33dff3f568c9f06a5724cc0 GLMR0.0076121955
0x436cf11136ea4ce0c47027bf1ed0ca6c34bd40a3ce492426442fe89dd06655830xd1e3002512716022022-06-19 22:02:19167 days 3 hrs ago0x022c5e18e18211d6f9f43d21621f78b4ada296a5OUT 0xac1931b30f306e02d375ff3c025a0325122ee9970 GLMR0.0391431705
0x406b0cd0d2a575defd8a54f56313070884fc6286428af0d4b662d7d276c13884Add Liquidity ET...12715642022-06-19 21:54:00167 days 3 hrs ago0x022c5e18e18211d6f9f43d21621f78b4ada296a5OUT SushiSwap: Router100 GLMR0.0233146515
0xe76d63ca6e22b1f0c02cc6769469fca7f6fdf42e581b90e2203f740b48486337Add Liquidity ET...12715572022-06-19 21:52:36167 days 3 hrs ago0x022c5e18e18211d6f9f43d21621f78b4ada296a5OUT SushiSwap: Router1 GLMR0.030824535
0xa719034cf174988de94418ef3c89582591802f5cb3a9b5189a168ed1ea2a671cApprove12715132022-06-19 21:43:36167 days 4 hrs ago0x022c5e18e18211d6f9f43d21621f78b4ada296a5OUT 0x625197a35863f57e851540085099baea46216ea00 GLMR0.004725028
0x3654f7bca24113a74465b3faeba8d420f52a6237b6060677a0efea0a2eed4fb2Approve12714692022-06-19 21:34:30167 days 4 hrs ago0x022c5e18e18211d6f9f43d21621f78b4ada296a5OUT Moonbeam: WGLMR Token0 GLMR0.004705946
0x42fec601c08bb1ffc6442b3c1ca5f58e571892e2def4cdc9b630df5c5717a8daDeposit12713852022-06-19 21:16:36167 days 4 hrs ago0x022c5e18e18211d6f9f43d21621f78b4ada296a5OUT Moonbeam: WGLMR Token10 GLMR0.004571357
0x64281aefcc496f491c0d39ceec335b508ed9246237e8df2c4cad6c6fa91cbfd3Transfer12705352022-06-19 18:11:12167 days 7 hrs ago0x332aa99f6cc054fa5703a6b4a4c9063f2a972ee2 IN 0x022c5e18e18211d6f9f43d21621f78b4ada296a5100 GLMR0.0021315
0x616e7dc837ea48c03efbd13923496680d69ad7beb7d07d9e1ec81967d75b39210x6e040b6112661562022-06-19 2:24:36167 days 23 hrs ago0x022c5e18e18211d6f9f43d21621f78b4ada296a5OUT Create: Falconheavy0 GLMR0.4923787375
0xd105ba7921691e8e16a4b8b0e8ce00f1dd3b759dbdc2660747c27ef774270a56Transfer12519722022-06-16 23:20:36170 days 2 hrs ago0x022c5e18e18211d6f9f43d21621f78b4ada296a5OUT 0x92ff90fe18f1c1488bded3c9e91789ea5aa9157a0 GLMR0.0025792165
0x87cccaf9917b0f5fd0ee3b66670482f522c1f749fbc768fb0aa301fad2dbd6f0Transfer12519632022-06-16 23:18:24170 days 2 hrs ago0x022c5e18e18211d6f9f43d21621f78b4ada296a5OUT 0x92ff90fe18f1c1488bded3c9e91789ea5aa9157a0 GLMR0.0031995845
[ Download CSV Export 
Latest 5 internal transactions
Parent Txn Hash Block From To Value
0x652b771fc38959a96f02aff1d33ddbc8710a10b9b38f9de319c0bc828862785712916772022-06-22 22:10:48164 days 3 hrs ago SushiSwap: Router0x022c5e18e18211d6f9f43d21621f78b4ada296a51,100.999999999999999999 GLMR
0x0ce3890a3cc8b0115267f29c27e77a674854b8836d338c9a3ab04e80783d9a0812460672022-06-16 2:00:48170 days 23 hrs ago SushiSwap: Router0x022c5e18e18211d6f9f43d21621f78b4ada296a510.499876753864318388 GLMR
0xe76b8dc818f455e138832cdf092826f6944925694034888e8dba62d6d5e90eac12460512022-06-16 1:57:30170 days 23 hrs ago SushiSwap: Router0x022c5e18e18211d6f9f43d21621f78b4ada296a50.000000010503741996 GLMR
0x81435003ed90e5426a2a917e6af21636d139b5a5b8d1bfbb35a74bcb8f26ac3912460462022-06-16 1:56:30170 days 23 hrs ago SushiSwap: Router0x022c5e18e18211d6f9f43d21621f78b4ada296a50.000000010503737799 GLMR
0x3db2afbacabf218806c7f3e64f4592bafc9778425a84c6562c0ab1e04d9e149212460192022-06-16 1:50:24170 days 23 hrs ago SushiSwap: Router0x022c5e18e18211d6f9f43d21621f78b4ada296a51 wei
[ Download CSV Export 
Loading

Contract Name:
0

Compiler Version
0

Optimization Enabled:
0

Other Settings:
-NA-
Block Transaction Gas Used Reward
Age Block Fee Address BC Fee Address Voting Power Jailed Incoming
Block Uncle Number Difficulty Gas Used Reward
Loading
Make sure to use the "Vote Down" button for any spammy posts, and the "Vote Up" for interesting conversations.